createdAt,value
2023-03-01T00:01:47.500Z,-2.45
2023-03-01T00:04:14.149Z,-2.45
2023-03-01T00:06:43.405Z,-2.46
2023-03-01T00:09:10.048Z,-2.45
2023-03-01T00:11:36.847Z,-2.43
2023-03-01T00:14:07.184Z,-2.43
2023-03-01T00:16:45.210Z,-2.43
2023-03-01T00:19:17.959Z,-2.46
2023-03-01T00:21:44.708Z,-2.43
2023-03-01T00:24:11.971Z,-2.39
2023-03-01T00:26:38.886Z,-2.38
2023-03-01T00:29:05.699Z,-2.37
2023-03-01T00:31:33.688Z,-2.37
2023-03-01T00:34:03.707Z,-2.35
2023-03-01T00:36:34.591Z,-2.35
2023-03-01T00:39:03.498Z,-2.35
2023-03-01T00:41:30.230Z,-2.35
2023-03-01T00:43:57.068Z,-2.34
2023-03-01T00:46:26.287Z,-2.35
2023-03-01T00:48:53.889Z,-2.35
2023-03-01T00:51:24.493Z,-2.36
2023-03-01T00:53:53.790Z,-2.35
2023-03-01T00:56:21.179Z,-2.35
2023-03-01T00:58:47.973Z,-2.43
2023-03-01T01:01:18.723Z,-2.35
2023-03-01T01:03:48.209Z,-2.36
2023-03-01T01:06:17.576Z,-2.35
2023-03-01T01:08:44.440Z,-2.35
2023-03-01T01:11:13.292Z,-2.34
2023-03-01T01:13:41.128Z,-2.32
2023-03-01T01:16:08.752Z,-2.33
2023-03-01T01:18:36.189Z,-2.41
2023-03-01T01:21:08.837Z,-2.31
2023-03-01T01:23:36.451Z,-2.31
2023-03-01T01:26:12.527Z,-2.30
2023-03-01T01:28:39.584Z,-2.30
2023-03-01T01:31:07.224Z,-2.30
2023-03-01T01:33:34.418Z,-2.29
2023-03-01T01:36:01.536Z,-2.30
2023-03-01T01:38:28.157Z,-2.30
2023-03-01T01:40:55.214Z,-2.32
2023-03-01T01:43:31.613Z,-2.32
2023-03-01T01:46:14.908Z,-2.40
2023-03-01T01:48:45.696Z,-2.33
2023-03-01T01:51:20.638Z,-2.33
2023-03-01T01:53:53.615Z,-2.42
2023-03-01T01:56:22.634Z,-2.34
2023-03-01T01:58:50.089Z,-2.34
2023-03-01T02:01:17.050Z,-2.35
2023-03-01T02:03:47.014Z,-2.34
2023-03-01T02:06:24.405Z,-2.35
2023-03-01T02:08:53.439Z,-2.34
2023-03-01T02:11:21.321Z,-2.35
2023-03-01T02:13:48.997Z,-2.34
2023-03-01T02:16:17.001Z,-2.34
2023-03-01T02:18:46.778Z,-2.34
2023-03-01T02:21:39.149Z,-2.42
2023-03-01T02:24:25.940Z,-2.33
2023-03-01T02:26:56.550Z,-2.33
2023-03-01T02:29:24.883Z,-2.34
2023-03-01T02:31:56.991Z,-2.34
2023-03-01T02:34:32.069Z,-2.34
2023-03-01T02:37:07.199Z,-2.34
2023-03-01T02:39:42.416Z,-2.34
2023-03-01T02:42:17.177Z,-2.35
2023-03-01T02:44:45.107Z,-2.35
2023-03-01T02:47:11.645Z,-2.36
2023-03-01T02:49:38.438Z,-2.36
2023-03-01T02:52:29.160Z,-2.37
2023-03-01T02:55:25.268Z,-2.38
2023-03-01T02:57:52.307Z,-2.39
2023-03-01T03:00:26.629Z,-2.40
2023-03-01T03:02:55.010Z,-2.41
2023-03-01T03:05:27.374Z,-2.42
2023-03-01T03:08:02.084Z,-2.43
2023-03-01T03:10:33.432Z,-2.43
2023-03-01T03:13:03.724Z,-2.45
2023-03-01T03:15:30.976Z,-2.46
2023-03-01T03:17:58.981Z,-2.46
2023-03-01T03:20:28.661Z,-2.47
2023-03-01T03:22:57.708Z,-2.49
2023-03-01T03:25:26.091Z,-2.51
2023-03-01T03:27:57.382Z,-2.51
2023-03-01T03:30:31.911Z,-2.53
2023-03-01T03:32:59.849Z,-2.53
2023-03-01T03:35:41.367Z,-2.56
2023-03-01T03:38:16.037Z,-2.57
2023-03-01T03:40:48.664Z,-2.72
2023-03-01T03:43:18.445Z,-2.60
2023-03-01T03:45:46.835Z,-2.61
2023-03-01T03:48:13.789Z,-2.61
2023-03-01T03:50:41.309Z,-2.62
2023-03-01T03:53:11.118Z,-2.62
2023-03-01T03:55:39.543Z,-2.63
2023-03-01T03:58:08.494Z,-2.62
2023-03-01T04:00:40.603Z,-2.61
2023-03-01T04:03:08.419Z,-2.60
2023-03-01T04:05:36.841Z,-2.59
2023-03-01T04:08:03.607Z,-2.59
2023-03-01T04:10:33.043Z,-2.58
2023-03-01T04:13:00.200Z,-2.57
2023-03-01T04:15:28.381Z,-2.56
2023-03-01T04:17:56.518Z,-2.55
2023-03-01T04:20:29.283Z,-2.55
2023-03-01T04:23:10.927Z,-2.54
2023-03-01T04:25:41.755Z,-2.52
2023-03-01T04:28:09.977Z,-2.51
2023-03-01T04:30:38.789Z,-2.49
2023-03-01T04:33:07.405Z,-2.47
2023-03-01T04:35:35.687Z,-2.46
2023-03-01T04:38:04.017Z,-2.44
2023-03-01T04:40:31.217Z,-2.42
2023-03-01T04:42:58.328Z,-2.42
2023-03-01T04:45:25.230Z,-2.41
2023-03-01T04:47:54.857Z,-2.41
2023-03-01T04:50:22.093Z,-2.49
2023-03-01T04:52:49.198Z,-2.42
2023-03-01T04:55:16.012Z,-2.44
2023-03-01T04:57:42.901Z,-2.43
2023-03-01T05:00:21.749Z,-2.44
2023-03-01T05:02:57.603Z,-2.45
2023-03-01T05:05:26.398Z,-2.45
2023-03-01T05:07:58.423Z,-2.46
2023-03-01T05:10:26.397Z,-2.46
2023-03-01T05:12:53.810Z,-2.44
2023-03-01T05:15:22.183Z,-2.44
2023-03-01T05:17:49.702Z,-2.44
2023-03-01T05:20:16.551Z,-2.50
2023-03-01T05:22:43.294Z,-2.43
2023-03-01T05:25:10.130Z,-2.44
2023-03-01T05:27:37.548Z,-2.43
2023-03-01T05:30:13.805Z,-2.42
2023-03-01T05:32:46.378Z,-2.41
2023-03-01T05:35:14.609Z,-2.40
2023-03-01T05:37:46.877Z,-2.39
2023-03-01T05:40:17.939Z,-2.39
2023-03-01T05:42:50.444Z,-2.38
2023-03-01T05:45:18.206Z,-2.36
2023-03-01T05:47:46.490Z,-2.35
2023-03-01T05:50:20.518Z,-2.34
2023-03-01T05:52:53.118Z,-2.31
2023-03-01T05:55:21.444Z,-2.30
2023-03-01T05:57:50.227Z,-2.28
2023-03-01T06:00:19.105Z,-2.34
2023-03-01T06:02:46.319Z,-2.25
2023-03-01T06:05:14.573Z,-2.24
2023-03-01T06:07:42.135Z,-2.23
2023-03-01T06:10:10.552Z,-2.20
2023-03-01T06:12:38.645Z,-2.18
2023-03-01T06:15:07.179Z,-2.15
2023-03-01T06:17:38.148Z,-2.21
2023-03-01T06:20:07.157Z,-2.11
2023-03-01T06:22:33.802Z,-2.09
2023-03-01T06:25:00.628Z,-2.05
2023-03-01T06:27:27.598Z,-2.02
2023-03-01T06:29:54.572Z,-1.98
2023-03-01T06:32:21.189Z,-1.95
2023-03-01T06:34:48.019Z,-1.92
2023-03-01T06:37:14.642Z,-1.89
2023-03-01T06:39:41.337Z,-1.86
2023-03-01T06:42:10.668Z,-1.81
2023-03-01T06:44:37.999Z,-1.78
2023-03-01T06:47:06.218Z,-1.71
2023-03-01T06:49:33.129Z,-1.65
2023-03-01T06:51:59.879Z,-1.61
2023-03-01T06:54:26.570Z,-1.57
2023-03-01T06:56:53.529Z,-1.60
2023-03-01T06:59:20.224Z,-1.46
2023-03-01T07:01:46.942Z,-1.41
2023-03-01T07:04:14.479Z,-1.36
2023-03-01T07:06:41.233Z,-1.28
2023-03-01T07:09:07.873Z,-1.22
2023-03-01T07:11:35.095Z,-1.16
2023-03-01T07:14:01.814Z,-1.10
2023-03-01T07:16:28.422Z,-1.03
2023-03-01T07:18:55.762Z,-0.96
2023-03-01T07:21:22.572Z,-0.90
2023-03-01T07:23:50.673Z,-0.83
2023-03-01T07:26:17.946Z,-0.74
2023-03-01T07:28:44.701Z,-0.68
2023-03-01T07:31:11.450Z,-0.60
2023-03-01T07:33:38.495Z,-0.60
2023-03-01T07:36:06.052Z,-0.44
2023-03-01T07:38:33.264Z,-0.36
2023-03-01T07:41:02.250Z,-0.27
2023-03-01T07:43:32.015Z,-0.18
2023-03-01T07:46:00.907Z,-0.09
2023-03-01T07:48:28.776Z,0.00
2023-03-01T07:50:58.258Z,0.04
2023-03-01T07:53:24.905Z,0.17
2023-03-01T07:56:11.553Z,0.28
2023-03-01T07:58:40.394Z,0.40
2023-03-01T08:01:10.179Z,0.50
2023-03-01T08:03:37.856Z,0.54
2023-03-01T08:06:06.966Z,0.73
2023-03-01T08:08:34.685Z,0.84
2023-03-01T08:11:05.675Z,0.97
2023-03-01T08:13:43.738Z,1.01
2023-03-01T08:16:14.901Z,1.20
2023-03-01T08:18:42.396Z,1.33
2023-03-01T08:21:14.338Z,1.45
2023-03-01T08:23:42.428Z,1.59
2023-03-01T08:26:20.880Z,1.71
2023-03-01T08:28:49.492Z,1.86
2023-03-01T08:31:37.004Z,1.92
2023-03-01T08:34:11.117Z,2.12
2023-03-01T08:36:41.281Z,2.24
2023-03-01T08:39:10.834Z,2.32
2023-03-01T08:41:38.541Z,2.43
2023-03-01T08:44:06.389Z,2.53
2023-03-01T08:46:38.843Z,2.62
2023-03-01T08:49:07.704Z,2.73
2023-03-01T08:51:37.162Z,2.80
2023-03-01T08:54:05.782Z,2.79
2023-03-01T08:56:32.973Z,2.96
2023-03-01T08:59:00.015Z,3.02
2023-03-01T09:01:27.013Z,3.06
2023-03-01T09:03:54.219Z,3.10
2023-03-01T09:06:21.366Z,3.07
2023-03-01T09:08:49.577Z,3.23
2023-03-01T09:11:20.293Z,3.30
2023-03-01T09:13:49.381Z,3.38
2023-03-01T09:16:18.723Z,3.46
2023-03-01T09:18:48.876Z,3.53
2023-03-01T09:21:22.616Z,3.60
2023-03-01T09:23:52.306Z,3.65
2023-03-01T09:26:22.368Z,3.67
2023-03-01T09:28:51.760Z,3.71
2023-03-01T09:31:20.673Z,3.77
2023-03-01T09:33:49.467Z,3.82
2023-03-01T09:36:19.844Z,3.87
2023-03-01T09:38:47.288Z,3.93
2023-03-01T09:41:26.779Z,4.00
2023-03-01T09:44:00.677Z,4.08
2023-03-01T09:46:27.775Z,4.14
2023-03-01T09:49:04.649Z,4.19
2023-03-01T09:51:33.891Z,4.23
2023-03-01T09:54:03.301Z,4.25
2023-03-01T09:56:44.989Z,4.28
2023-03-01T09:59:22.245Z,4.31
2023-03-01T10:02:11.928Z,4.33
2023-03-01T10:04:49.287Z,4.34
2023-03-01T10:07:36.304Z,4.32
2023-03-01T10:10:07.835Z,4.38
2023-03-01T10:12:42.020Z,4.40
2023-03-01T10:15:21.482Z,4.40
2023-03-01T10:18:03.674Z,4.44
2023-03-01T10:20:55.830Z,4.48
2023-03-01T10:23:28.681Z,4.50
2023-03-01T10:26:25.918Z,4.52
2023-03-01T10:29:02.963Z,4.56
2023-03-01T10:31:51.482Z,4.58
2023-03-01T10:34:23.657Z,4.58
2023-03-01T10:36:55.453Z,4.60
2023-03-01T10:39:26.028Z,4.61
2023-03-01T10:41:57.334Z,4.64
2023-03-01T10:44:46.640Z,4.66
2023-03-01T10:47:17.215Z,4.68
2023-03-01T10:50:00.944Z,4.71
2023-03-01T10:52:32.535Z,4.74
2023-03-01T10:55:03.599Z,4.74
2023-03-01T10:57:37.197Z,4.76
2023-03-01T11:00:27.089Z,4.78
2023-03-01T11:02:59.803Z,4.81
2023-03-01T11:05:28.948Z,4.84
2023-03-01T11:07:58.780Z,4.89
2023-03-01T11:10:35.788Z,4.94
2023-03-01T11:13:17.653Z,4.98
2023-03-01T11:16:00.561Z,5.02
2023-03-01T11:18:44.606Z,5.06
2023-03-01T11:21:16.713Z,5.10
2023-03-01T11:23:46.979Z,5.14
2023-03-01T11:26:18.487Z,5.18
2023-03-01T11:28:52.372Z,5.23
2023-03-01T11:31:19.499Z,5.30
2023-03-01T11:34:15.938Z,5.35
2023-03-01T11:36:59.643Z,5.41
2023-03-01T11:39:57.490Z,5.47
2023-03-01T11:42:38.468Z,5.55
2023-03-01T11:45:12.834Z,5.62
2023-03-01T11:47:48.167Z,5.71
2023-03-01T11:50:48.940Z,5.72
2023-03-01T11:53:44.213Z,5.86
2023-03-01T11:56:33.338Z,5.86
2023-03-01T11:59:48.269Z,6.00
2023-03-01T12:02:37.741Z,6.05
2023-03-01T12:05:22.780Z,6.10
2023-03-01T12:08:14.798Z,6.14
2023-03-01T12:11:04.918Z,6.18
2023-03-01T12:13:38.685Z,6.26
2023-03-01T12:16:28.816Z,6.34
2023-03-01T12:19:12.625Z,6.40
2023-03-01T12:22:05.298Z,6.47
2023-03-01T12:24:43.318Z,6.54
2023-03-01T12:27:31.574Z,6.62
2023-03-01T12:30:06.873Z,6.70
2023-03-01T12:33:03.587Z,6.70
2023-03-01T12:35:51.880Z,6.85
2023-03-01T12:38:26.397Z,6.92
2023-03-01T12:41:12.263Z,6.99
2023-03-01T12:43:47.915Z,7.07
2023-03-01T12:46:17.476Z,7.13
2023-03-01T12:49:12.000Z,7.17
2023-03-01T12:51:40.508Z,7.24
2023-03-01T12:54:26.376Z,7.32
2023-03-01T12:56:54.485Z,7.38
2023-03-01T12:59:36.922Z,7.42
2023-03-01T13:02:46.246Z,7.50
2023-03-01T13:05:32.605Z,7.58
2023-03-01T13:08:14.102Z,7.65
2023-03-01T13:11:02.685Z,7.70
2023-03-01T13:13:30.864Z,7.75
2023-03-01T13:16:18.110Z,7.79
2023-03-01T13:18:45.084Z,7.81
2023-03-01T13:21:11.736Z,7.86
2023-03-01T13:23:40.397Z,7.90
2023-03-01T13:26:55.185Z,7.86
2023-03-01T13:29:28.193Z,7.95
2023-03-01T13:32:07.451Z,7.95
2023-03-01T13:34:45.618Z,7.94
2023-03-01T13:37:21.877Z,7.93
2023-03-01T13:39:48.774Z,7.95
2023-03-01T13:43:04.205Z,7.86
2023-03-01T13:45:43.884Z,7.91
2023-03-01T13:48:10.935Z,7.87
2023-03-01T13:50:47.055Z,7.86
2023-03-01T13:53:20.130Z,7.86
2023-03-01T13:56:19.746Z,7.85
2023-03-01T13:59:06.112Z,7.85
2023-03-01T14:01:36.400Z,7.85
2023-03-01T14:04:20.210Z,7.86
2023-03-01T14:06:46.931Z,7.88
2023-03-01T14:09:20.883Z,7.91
2023-03-01T14:11:56.790Z,7.93
2023-03-01T14:14:43.983Z,7.97
2023-03-01T14:17:43.648Z,8.04
2023-03-01T14:20:19.856Z,8.07
2023-03-01T14:22:51.045Z,8.10
2023-03-01T14:25:27.196Z,8.09
2023-03-01T14:28:01.107Z,8.07
2023-03-01T14:30:34.157Z,8.07
2023-03-01T14:33:04.214Z,8.09
2023-03-01T14:35:37.208Z,8.15
2023-03-01T14:38:04.396Z,8.17
2023-03-01T14:40:34.912Z,8.18
2023-03-01T14:43:10.564Z,8.21
2023-03-01T14:45:38.125Z,8.20
2023-03-01T14:48:07.422Z,8.20
2023-03-01T14:50:42.938Z,8.20
2023-03-01T14:53:20.640Z,8.20
2023-03-01T14:55:51.685Z,8.27
2023-03-01T14:58:22.016Z,8.42
2023-03-01T15:00:55.817Z,8.61
2023-03-01T15:03:37.547Z,8.81
2023-03-01T15:06:07.550Z,9.00
2023-03-01T15:08:37.319Z,9.15
2023-03-01T15:11:27.686Z,9.24
2023-03-01T15:13:54.844Z,9.31
2023-03-01T15:16:34.739Z,9.36
2023-03-01T15:19:04.332Z,9.37
2023-03-01T15:21:37.033Z,9.37
2023-03-01T15:24:22.166Z,9.38
2023-03-01T15:27:19.222Z,9.36
2023-03-01T15:29:55.644Z,9.27
2023-03-01T15:32:34.872Z,9.10
2023-03-01T15:35:40.910Z,8.93
2023-03-01T15:38:29.311Z,8.70
2023-03-01T15:40:58.003Z,8.49
2023-03-01T15:43:43.160Z,8.28
2023-03-01T15:46:19.575Z,8.06
2023-03-01T15:48:53.105Z,7.86
2023-03-01T15:51:28.278Z,7.68
2023-03-01T15:53:55.421Z,7.50
2023-03-01T15:56:22.225Z,7.36
2023-03-01T15:58:49.005Z,7.11
2023-03-01T16:01:17.816Z,7.04
2023-03-01T16:03:45.848Z,6.88
2023-03-01T16:06:13.029Z,6.74
2023-03-01T16:08:40.615Z,6.62
2023-03-01T16:11:16.788Z,6.50
2023-03-01T16:13:45.812Z,6.34
2023-03-01T16:16:16.622Z,6.27
2023-03-01T16:18:44.844Z,6.15
2023-03-01T16:21:23.508Z,6.04
2023-03-01T16:23:52.965Z,5.93
2023-03-01T16:26:21.374Z,5.83
2023-03-01T16:28:48.666Z,5.74
2023-03-01T16:31:19.772Z,5.62
2023-03-01T16:33:50.159Z,5.51
2023-03-01T16:36:18.952Z,5.39
2023-03-01T16:38:46.298Z,5.26
2023-03-01T16:41:18.465Z,5.16
2023-03-01T16:43:49.467Z,5.03
2023-03-01T16:46:21.630Z,4.91
2023-03-01T16:48:50.008Z,4.79
2023-03-01T16:51:16.928Z,4.68
2023-03-01T16:53:45.644Z,4.58
2023-03-01T16:56:15.045Z,4.49
2023-03-01T16:58:42.609Z,4.37
2023-03-01T17:01:13.981Z,4.25
2023-03-01T17:03:40.819Z,4.14
2023-03-01T17:06:13.736Z,4.03
2023-03-01T17:08:40.984Z,3.91
2023-03-01T17:11:09.627Z,3.80
2023-03-01T17:13:38.011Z,3.70
2023-03-01T17:16:07.729Z,3.59
2023-03-01T17:18:34.791Z,3.49
2023-03-01T17:21:04.979Z,3.39
2023-03-01T17:23:33.484Z,3.28
2023-03-01T17:26:00.452Z,3.17
2023-03-01T17:28:29.654Z,3.08
2023-03-01T17:30:56.686Z,2.99
2023-03-01T17:33:23.507Z,2.90
2023-03-01T17:35:50.541Z,2.81
2023-03-01T17:38:18.391Z,2.73
2023-03-01T17:40:48.088Z,2.66
2023-03-01T17:43:17.019Z,2.60
2023-03-01T17:45:48.030Z,2.54
2023-03-01T17:48:16.128Z,2.47
2023-03-01T17:50:43.744Z,2.41
2023-03-01T17:53:11.337Z,2.36
2023-03-01T17:55:42.804Z,2.30
2023-03-01T17:58:15.438Z,2.26
2023-03-01T18:00:42.926Z,2.21
2023-03-01T18:03:10.035Z,2.10
2023-03-01T18:05:40.109Z,2.13
2023-03-01T18:08:06.990Z,2.07
2023-03-01T18:10:36.191Z,2.01
2023-03-01T18:13:05.637Z,1.95
2023-03-01T18:15:33.297Z,1.90
2023-03-01T18:18:03.407Z,1.83
2023-03-01T18:20:32.317Z,1.79
2023-03-01T18:22:59.667Z,1.74
2023-03-01T18:25:27.218Z,1.69
2023-03-01T18:27:54.628Z,1.58
2023-03-01T18:30:23.567Z,1.61
2023-03-01T18:32:55.942Z,1.57
2023-03-01T18:35:23.519Z,1.51
2023-03-01T18:37:50.160Z,1.48
2023-03-01T18:43:21.455Z,1.38
2023-03-01T18:45:56.294Z,1.34
2023-03-01T18:48:23.834Z,1.30
2023-03-01T18:50:51.098Z,1.25
2023-03-01T18:53:17.885Z,1.24
2023-03-01T18:55:45.269Z,1.10
2023-03-01T18:58:12.629Z,1.19
2023-03-01T19:00:52.055Z,1.15
2023-03-01T19:03:18.828Z,1.13
2023-03-01T19:05:45.877Z,1.11
2023-03-01T19:08:12.538Z,1.09
2023-03-01T19:10:39.356Z,1.07
2023-03-01T19:13:06.143Z,1.07
2023-03-01T19:15:32.726Z,1.05
2023-03-01T19:18:01.138Z,1.04
2023-03-01T19:20:28.108Z,1.02
2023-03-01T19:22:55.005Z,1.02
2023-03-01T19:25:21.988Z,1.02
2023-03-01T19:27:48.803Z,0.93
2023-03-01T19:30:15.824Z,1.02
2023-03-01T19:32:43.015Z,1.01
2023-03-01T19:35:09.978Z,1.01
2023-03-01T19:37:37.268Z,1.00
2023-03-01T19:40:05.093Z,0.99
2023-03-01T19:42:32.235Z,0.99
2023-03-01T19:44:59.755Z,0.80
2023-03-01T19:47:26.750Z,0.95
2023-03-01T19:49:54.106Z,0.94
2023-03-01T19:52:20.966Z,0.91
2023-03-01T19:54:48.051Z,0.88
2023-03-01T19:57:15.198Z,0.77
2023-03-01T19:59:41.978Z,0.82
2023-03-01T20:02:09.797Z,0.79
2023-03-01T20:04:36.905Z,0.75
2023-03-01T20:07:03.983Z,0.73
2023-03-01T20:09:30.748Z,0.71
2023-03-01T20:11:57.749Z,0.68
2023-03-01T20:14:24.473Z,0.65
2023-03-01T20:16:51.558Z,0.63
2023-03-01T20:19:18.355Z,0.61
2023-03-01T20:21:45.110Z,0.59
2023-03-01T20:24:13.034Z,0.58
2023-03-01T20:26:40.531Z,0.57
2023-03-01T20:29:08.270Z,0.56
2023-03-01T20:31:35.546Z,0.55
2023-03-01T20:34:04.161Z,0.54
2023-03-01T20:36:31.213Z,0.54
2023-03-01T20:38:59.299Z,0.54
2023-03-01T20:41:26.541Z,0.53
2023-03-01T20:43:55.866Z,0.51
2023-03-01T20:46:24.973Z,0.48
2023-03-01T20:48:53.677Z,0.46
2023-03-01T20:51:20.535Z,0.44
2023-03-01T20:53:47.486Z,0.28
2023-03-01T20:56:16.417Z,0.39
2023-03-01T20:59:11.372Z,0.36
2023-03-01T21:01:39.504Z,0.33
2023-03-01T21:04:06.790Z,0.31
2023-03-01T21:06:33.845Z,0.28
2023-03-01T21:09:01.388Z,0.27
2023-03-01T21:11:28.405Z,0.25
2023-03-01T21:13:55.903Z,0.25
2023-03-01T21:16:23.810Z,0.24
2023-03-01T21:18:55.489Z,0.22
2023-03-01T21:21:23.514Z,0.21
2023-03-01T21:23:56.032Z,0.18
2023-03-01T21:26:27.006Z,0.16
2023-03-01T21:28:57.483Z,0.15
2023-03-01T21:31:27.661Z,0.13
2023-03-01T21:33:56.298Z,0.12
2023-03-01T21:36:24.768Z,0.10
2023-03-01T21:38:52.605Z,0.09
2023-03-01T21:41:38.281Z,0.09
2023-03-01T21:44:06.730Z,0.10
2023-03-01T21:46:36.665Z,0.10
2023-03-01T21:49:04.635Z,0.14
2023-03-01T21:51:35.534Z,0.18
2023-03-01T21:54:02.761Z,0.20
2023-03-01T21:56:33.757Z,0.23
2023-03-01T21:59:01.119Z,0.25
2023-03-01T22:01:28.723Z,0.27
2023-03-01T22:03:58.733Z,0.29
2023-03-01T22:06:33.416Z,0.31
2023-03-01T22:09:07.170Z,0.33
2023-03-01T22:11:37.298Z,0.35
2023-03-01T22:14:08.000Z,0.38
2023-03-01T22:16:37.197Z,0.40
2023-03-01T22:19:06.091Z,0.40
2023-03-01T22:21:33.459Z,0.41
2023-03-01T22:24:00.790Z,0.41
2023-03-01T22:26:34.380Z,0.40
2023-03-01T22:29:06.588Z,0.40
2023-03-01T22:31:33.474Z,0.39
2023-03-01T22:34:00.403Z,0.38
2023-03-01T22:36:28.167Z,0.36
2023-03-01T22:39:02.455Z,0.35
2023-03-01T22:41:43.613Z,0.36
2023-03-01T22:44:16.117Z,0.37
2023-03-01T22:46:43.515Z,0.39
2023-03-01T22:49:11.475Z,0.41
2023-03-01T22:51:40.610Z,0.43
2023-03-01T22:54:09.896Z,0.44
2023-03-01T22:56:38.443Z,0.43
2023-03-01T22:59:08.294Z,0.42
2023-03-01T23:01:36.462Z,0.42
2023-03-01T23:04:03.291Z,0.41
2023-03-01T23:06:30.992Z,0.39
2023-03-01T23:09:00.795Z,0.38
2023-03-01T23:11:29.083Z,0.36
2023-03-01T23:13:57.832Z,0.30
2023-03-01T23:16:25.607Z,0.29
2023-03-01T23:18:59.780Z,0.25
2023-03-01T23:21:27.291Z,0.23
2023-03-01T23:23:55.103Z,0.18
2023-03-01T23:26:22.010Z,0.14
2023-03-01T23:28:50.283Z,0.09
2023-03-01T23:31:17.100Z,0.06
2023-03-01T23:33:45.170Z,0.05
2023-03-01T23:36:22.337Z,0.05
2023-03-01T23:38:52.325Z,0.04
2023-03-01T23:41:21.786Z,0.03
2023-03-01T23:43:51.875Z,-0.02
2023-03-01T23:46:20.639Z,-0.06
2023-03-01T23:48:49.638Z,-0.10
2023-03-01T23:51:17.570Z,-0.16
2023-03-01T23:53:53.937Z,-0.21
2023-03-01T23:56:26.762Z,-0.25
2023-03-01T23:58:54.755Z,-0.29
